Flight Track Log - Related Links

Times and Time Zones

All times are in EST time to prevent confusion due to time zone crossing. See the N319EE flight status page for this flight to view local times or setup timezone preferences in your user account.

Time Position Orientation Groundspeed Altitude Reporting Facility
EST Latitude Longitude Course Direction KTS MPH feet Rate Location/Type
Thu 08:50:30 AM 43.0672 -77.6828 169° South 177 204 3,100  Level Cleveland Center
Thu 08:50:33 AM 43.0708 -77.6869 320° Northwest 202 232 3,000 1,688 Descending Cleveland Center
Thu 08:51:34 AM 43.0725 -77.6136 88° East 207 238 4,900 2,000 Climbing Cleveland Center
Thu 08:52:36 AM 43.0886 -77.5372 74° East 208 239 7,100 2,032 Climbing Cleveland Center
Thu 08:53:38 AM 43.1039 -77.4594 75° East 210 242 9,100 2,032 Climbing Cleveland Center
Thu 08:54:40 AM 43.1228 -77.3614 75° East 220 253 11,300 2,098 Climbing Cleveland Center
Thu 08:55:41 AM 43.1394 -77.2742 75° East 232 267 13,400 1,951 Climbing Cleveland Center
Thu 08:56:43 AM 43.1569 -77.1875 75° East 236 272 15,300 1,839 Climbing Cleveland Center
Thu 08:57:45 AM 43.1742 -77.0981 75° East 241 277 17,200 1,548 Climbing Cleveland Center
Thu 08:58:47 AM 43.1922 -77.0069 75° East 245 282 18,500 1,536 Climbing Cleveland Center
Thu 08:59:50 AM 43.2117 -76.9025 76° East 260 299 20,400 1,210 Climbing Cleveland Center
Thu 09:00:51 AM 43.2333 -76.7967 74° East 281 323 21,000 293 Climbing Cleveland Center
Thu 09:01:53 AM 43.2539 -76.6742 77° East 318 366 21,000  Level Cleveland Center
Thu 09:02:55 AM 43.2786 -76.5472 75° East 339 390 21,000  Level Cleveland Center
Thu 09:03:57 AM 43.3083 -76.3947 75° East 345 397 21,000  Level Cleveland Center
Thu 09:04:45 AM 43.3261 -76.2919 77° East 350 403 21,000  Level Boston Center
Thu 09:05:46 AM 43.3508 -76.1622 75° East 351 404 21,000  Level Boston Center
Thu 09:06:47 AM 43.3739 -76.0311 76° East 353 406 21,000 148 Level Boston Center
Thu 09:07:48 AM 43.3975 -75.9014 76° East 350 403 21,300 694 Climbing Boston Center
Thu 09:08:48 AM 43.4203 -75.7781 76° East 338 389 22,400 976 Climbing Boston Center
Thu 09:09:51 AM 43.4419 -75.6589 76° East 323 372 23,300 1,065 Climbing Boston Center
Thu 09:10:52 AM 43.4628 -75.5394 76° East 320 368 24,600 843 Climbing Boston Center
Thu 09:11:52 AM 43.4828 -75.4200 77° East 319 367 25,000 198 Climbing Boston Center
Thu 09:12:53 AM 43.5044 -75.2889 77° East 342 394 25,000  Level Boston Center
Thu 09:13:53 AM 43.5281 -75.1547 76° East 353 406 25,000  Level Boston Center
Thu 09:14:57 AM 43.5514 -75.0197 77° East 358 412 25,000  Level Boston Center
Thu 09:15:57 AM 43.5750 -74.8842 76° East 362 417 25,000  Level Boston Center
Thu 09:16:58 AM 43.5978 -74.7478 77° East 365 420 25,000  Level Boston Center
Thu 09:17:58 AM 43.6214 -74.6108 77° East 367 422 25,000  Level Boston Center
Thu 09:19:00 AM 43.6436 -74.4764 77° East 363 418 25,000  Level Boston Center
Thu 09:20:00 AM 43.6661 -74.3408 77° East 362 417 25,000  Level Boston Center
Thu 09:21:01 AM 43.6939 -74.1781 77° East 363 418 25,000  Level Boston Center
Thu 09:22:02 AM 43.7156 -74.0428 77° East 363 418 25,000  Level Boston Center
Thu 09:23:02 AM 43.7381 -73.9075 77° East 362 417 25,000  Level Boston Center
Thu 09:24:05 AM 43.7597 -73.7711 78° East 363 418 25,000  Level Boston Center
Thu 09:25:05 AM 43.7808 -73.6428 77° East 361 415 25,000  Level Boston Center
Thu 09:26:07 AM 43.8028 -73.5069 77° East 362 417 25,000  Level Boston Center
Thu 09:27:07 AM 43.8236 -73.3714 78° East 362 417 25,000  Level Boston Center
Thu 09:28:08 AM 43.8444 -73.2358 78° East 363 418 25,000  Level Boston Center
Thu 09:29:09 AM 43.8700 -73.0728 78° East 363 418 25,000  Level Boston Center
Thu 09:30:11 AM 43.8872 -72.9556 78° East 361 415 25,000  Level Boston Center
Thu 09:31:10 AM 43.9089 -72.8178 78° East 364 419 25,000  Level Boston Center
Thu 09:32:11 AM 43.9289 -72.6842 78° East 358 412 25,000  Level Boston Center
Thu 09:33:12 AM 43.9517 -72.5314 78° East 362 417 25,000  Level Boston Center
Thu 09:34:15 AM 43.9714 -72.3942 79° East 363 418 25,000  Level Boston Center
Thu 09:35:16 AM 43.9914 -72.2575 78° East 363 418 25,000 -149 Level Boston Center
Thu 09:36:16 AM 44.0136 -72.1058 78° East 365 420 24,700 -650 Descending Boston Center
Thu 09:37:16 AM 44.0339 -71.9667 78° East 367 422 23,700 -893 Descending Boston Center
Thu 09:38:17 AM 44.0517 -71.8411 79° East 372 428 22,900 -919 Descending Boston Center
Thu 09:39:20 AM 44.0711 -71.7039 79° East 367 422 21,800 -1,073 Descending Boston Center
Thu 09:40:20 AM 44.0908 -71.5661 79° East 364 419 20,700 -1,230 Descending Boston Center
Thu 09:41:22 AM 44.1106 -71.4183 79° East 366 421 19,300 -1,377 Descending Boston Center
Thu 09:42:22 AM 44.1292 -71.2800 79° East 364 419 17,900 -1,300 Descending Boston Center
Thu 09:43:22 AM 44.1492 -71.1339 79° East 350 403 16,700 -1,388 Descending Boston Center
Thu 09:44:23 AM 44.1669 -70.9967 80° East 337 388 15,100 -1,475 Descending Boston Center
Thu 09:45:24 AM 44.1844 -70.8706 79° East 333 383 13,700 -1,268 Descending Boston Center
Thu 09:46:26 AM 44.2006 -70.7458 80° East 328 377 12,500 -1,171 Descending Boston Center
Thu 09:47:27 AM 44.2158 -70.6267 80° East 317 365 11,300 -1,400 Descending Boston Center
Thu 09:48:26 AM 44.2044 -70.5203 98° East 277 319 9,700 -1,613 Descending Boston Center
Thu 09:49:26 AM 44.1906 -70.4172 101° East 271 312 8,100 -1,415 Descending Boston Center
Thu 09:50:29 AM 44.1769 -70.3114 100° East 260 299 6,800 -1,258 Descending Boston Center
Thu 09:51:30 AM 44.1644 -70.2197 101° East 244 281 5,500 -1,289 Descending Boston Center
Thu 09:52:30 AM 44.1525 -70.1275 100° East 242 278 4,200 -1,091 Descending Boston Center
Thu 09:53:31 AM 44.1408 -70.0411 101° East 229 264 3,300 -595 Descending Boston Center
Thu 09:54:31 AM 44.1297 -69.9603 101° East 217 250 3,000 -150 Descending Boston Center
Thu 09:55:31 AM 44.1206 -69.8872 100° East 196 226 3,000  Level Boston Center
Thu 09:56:35 AM 44.1097 -69.8092 101° East 193 222 3,000  Level Boston Center
Thu 09:57:34 AM 44.1211 -69.7336 78° East 204 235 3,000 -50 Level Boston Center
Thu 09:58:35 AM 44.1589 -69.6897 40° Northeast 192 221 2,900 -290 Descending Boston Center
Thu 09:59:38 AM 44.2056 -69.7175 337° Northwest 183 211 2,400 -484 Descending Boston Center
Thu 10:00:39 AM 44.2500 -69.7489 333° Northwest 181 208 1,900 -787 Descending Boston Center
Thu 10:01:40 AM 44.2967 -69.7825 333° Northwest 176 203 800 -645 Descending Boston Center
Thu 10:02:40 AM 44.3286 -69.8033 335° Northwest 167 192 600 -200 Descending Boston Center

Login

Don't have an account? Register now (free) for customized features, flight alerts, and more!